sensor_id;sensor_type;location;lat;lon;timestamp;temperature;humidity
22781;DHT22;11557;50.884;4.322;2023-02-08T00:00:20;3.70;99.90
22781;DHT22;11557;50.884;4.322;2023-02-08T00:02:47;3.40;99.90
22781;DHT22;11557;50.884;4.322;2023-02-08T00:05:13;3.30;99.90
22781;DHT22;11557;50.884;4.322;2023-02-08T00:07:39;3.30;99.90
22781;DHT22;11557;50.884;4.322;2023-02-08T00:10:05;3.30;99.90
22781;DHT22;11557;50.884;4.322;2023-02-08T00:12:32;3.30;99.90
22781;DHT22;11557;50.884;4.322;2023-02-08T00:14:58;3.30;99.90
22781;DHT22;11557;50.884;4.322;2023-02-08T00:17:24;3.40;99.90
22781;DHT22;11557;50.884;4.322;2023-02-08T00:19:51;3.40;99.90
22781;DHT22;11557;50.884;4.322;2023-02-08T00:22:16;3.90;99.90
22781;DHT22;11557;50.884;4.322;2023-02-08T00:24:42;2.90;99.90
22781;DHT22;11557;50.884;4.322;2023-02-08T00:27:08;3.40;99.90
22781;DHT22;11557;50.884;4.322;2023-02-08T00:29:33;3.60;99.90
22781;DHT22;11557;50.884;4.322;2023-02-08T00:31:59;3.50;99.90
22781;DHT22;11557;50.884;4.322;2023-02-08T00:34:25;3.40;99.90
22781;DHT22;11557;50.884;4.322;2023-02-08T00:36:50;3.50;99.90
22781;DHT22;11557;50.884;4.322;2023-02-08T00:39:16;3.60;99.90
22781;DHT22;11557;50.884;4.322;2023-02-08T00:41:42;3.60;99.90
22781;DHT22;11557;50.884;4.322;2023-02-08T00:44:07;3.50;99.90
22781;DHT22;11557;50.884;4.322;2023-02-08T00:46:33;3.40;99.90
22781;DHT22;11557;50.884;4.322;2023-02-08T00:48:59;3.60;99.90
22781;DHT22;11557;50.884;4.322;2023-02-08T00:51:24;3.80;99.90
22781;DHT22;11557;50.884;4.322;2023-02-08T00:53:50;4.00;99.90
22781;DHT22;11557;50.884;4.322;2023-02-08T00:56:16;3.90;99.90
22781;DHT22;11557;50.884;4.322;2023-02-08T00:58:42;3.60;99.90
22781;DHT22;11557;50.884;4.322;2023-02-08T01:01:08;3.70;99.90
22781;DHT22;11557;50.884;4.322;2023-02-08T01:03:37;3.90;99.90
22781;DHT22;11557;50.884;4.322;2023-02-08T01:06:06;3.90;99.90
22781;DHT22;11557;50.884;4.322;2023-02-08T01:08:32;4.00;99.90
22781;DHT22;11557;50.884;4.322;2023-02-08T01:11:05;3.90;99.90
22781;DHT22;11557;50.884;4.322;2023-02-08T01:13:31;3.80;99.90
22781;DHT22;11557;50.884;4.322;2023-02-08T01:16:06;3.80;99.90
22781;DHT22;11557;50.884;4.322;2023-02-08T01:18:32;3.90;99.90
22781;DHT22;11557;50.884;4.322;2023-02-08T01:21:06;4.00;99.90
22781;DHT22;11557;50.884;4.322;2023-02-08T01:23:31;4.00;99.90
22781;DHT22;11557;50.884;4.322;2023-02-08T01:25:57;4.00;99.90
22781;DHT22;11557;50.884;4.322;2023-02-08T01:28:23;3.80;99.90
22781;DHT22;11557;50.884;4.322;2023-02-08T01:30:48;3.80;99.90
22781;DHT22;11557;50.884;4.322;2023-02-08T01:33:14;3.80;99.90
22781;DHT22;11557;50.884;4.322;2023-02-08T01:35:40;3.50;99.90
22781;DHT22;11557;50.884;4.322;2023-02-08T01:38:05;3.40;99.90
22781;DHT22;11557;50.884;4.322;2023-02-08T01:40:31;3.70;99.90
22781;DHT22;11557;50.884;4.322;2023-02-08T01:42:57;3.80;99.90
22781;DHT22;11557;50.884;4.322;2023-02-08T01:45:25;3.80;99.90
22781;DHT22;11557;50.884;4.322;2023-02-08T01:47:59;3.70;99.90
22781;DHT22;11557;50.884;4.322;2023-02-08T01:50:31;3.60;99.90
22781;DHT22;11557;50.884;4.322;2023-02-08T01:52:59;3.50;99.90
22781;DHT22;11557;50.884;4.322;2023-02-08T01:55:30;3.60;99.90
22781;DHT22;11557;50.884;4.322;2023-02-08T01:58:00;3.50;99.90
22781;DHT22;11557;50.884;4.322;2023-02-08T02:00:26;3.90;99.90
22781;DHT22;11557;50.884;4.322;2023-02-08T02:02:54;4.00;99.90
22781;DHT22;11557;50.884;4.322;2023-02-08T02:05:22;3.40;99.90
22781;DHT22;11557;50.884;4.322;2023-02-08T02:07:50;3.50;99.90
22781;DHT22;11557;50.884;4.322;2023-02-08T02:10:34;3.50;99.90
22781;DHT22;11557;50.884;4.322;2023-02-08T02:13:05;3.50;99.90
22781;DHT22;11557;50.884;4.322;2023-02-08T02:15:31;3.50;99.90
22781;DHT22;11557;50.884;4.322;2023-02-08T02:17:57;3.80;99.90
22781;DHT22;11557;50.884;4.322;2023-02-08T02:23:09;3.60;99.90
22781;DHT22;11557;50.884;4.322;2023-02-08T02:31:37;3.70;99.90
22781;DHT22;11557;50.884;4.322;2023-02-08T02:34:10;3.60;99.90
22781;DHT22;11557;50.884;4.322;2023-02-08T02:42:43;3.80;99.90
22781;DHT22;11557;50.884;4.322;2023-02-08T02:45:58;3.50;99.90
22781;DHT22;11557;50.884;4.322;2023-02-08T02:51:19;3.20;99.90
22781;DHT22;11557;50.884;4.322;2023-02-08T02:53:54;3.10;99.90
22781;DHT22;11557;50.884;4.322;2023-02-08T02:56:33;3.30;99.90
22781;DHT22;11557;50.884;4.322;2023-02-08T02:59:06;3.50;99.90
22781;DHT22;11557;50.884;4.322;2023-02-08T03:01:33;3.30;99.90
22781;DHT22;11557;50.884;4.322;2023-02-08T03:03:59;3.20;99.90
22781;DHT22;11557;50.884;4.322;2023-02-08T03:09:24;3.10;99.90
22781;DHT22;11557;50.884;4.322;2023-02-08T03:20:40;3.20;99.90
22781;DHT22;11557;50.884;4.322;2023-02-08T03:29:18;3.00;99.90
22781;DHT22;11557;50.884;4.322;2023-02-08T03:36:57;3.20;99.90
22781;DHT22;11557;50.884;4.322;2023-02-08T03:39:27;3.30;99.90
22781;DHT22;11557;50.884;4.322;2023-02-08T03:41:58;3.10;99.90
22781;DHT22;11557;50.884;4.322;2023-02-08T03:44:31;3.10;99.90
22781;DHT22;11557;50.884;4.322;2023-02-08T03:47:15;3.20;99.90
22781;DHT22;11557;50.884;4.322;2023-02-08T03:49:42;3.40;99.90
22781;DHT22;11557;50.884;4.322;2023-02-08T03:52:10;3.40;99.90
22781;DHT22;11557;50.884;4.322;2023-02-08T03:54:53;3.20;99.90
22781;DHT22;11557;50.884;4.322;2023-02-08T04:00:09;2.70;99.90
22781;DHT22;11557;50.884;4.322;2023-02-08T04:02:39;3.00;99.90
22781;DHT22;11557;50.884;4.322;2023-02-08T04:05:06;3.10;99.90
22781;DHT22;11557;50.884;4.322;2023-02-08T04:07:33;3.10;99.90
22781;DHT22;11557;50.884;4.322;2023-02-08T04:09:59;3.20;99.90
22781;DHT22;11557;50.884;4.322;2023-02-08T04:12:24;3.00;99.90
22781;DHT22;11557;50.884;4.322;2023-02-08T04:14:50;3.30;99.90
22781;DHT22;11557;50.884;4.322;2023-02-08T04:17:16;2.60;99.90
22781;DHT22;11557;50.884;4.322;2023-02-08T04:19:41;3.00;99.90
22781;DHT22;11557;50.884;4.322;2023-02-08T04:22:07;3.60;99.90
22781;DHT22;11557;50.884;4.322;2023-02-08T04:24:32;3.30;99.90
22781;DHT22;11557;50.884;4.322;2023-02-08T04:26:58;2.70;99.90
22781;DHT22;11557;50.884;4.322;2023-02-08T04:29:24;3.00;99.90
22781;DHT22;11557;50.884;4.322;2023-02-08T04:31:49;3.20;99.90
22781;DHT22;11557;50.884;4.322;2023-02-08T04:34:15;2.80;99.90
22781;DHT22;11557;50.884;4.322;2023-02-08T04:36:41;2.90;99.90
22781;DHT22;11557;50.884;4.322;2023-02-08T04:39:07;3.00;99.90
22781;DHT22;11557;50.884;4.322;2023-02-08T04:41:33;3.10;99.90
22781;DHT22;11557;50.884;4.322;2023-02-08T04:43:59;3.10;99.90
22781;DHT22;11557;50.884;4.322;2023-02-08T04:46:24;3.40;99.90
22781;DHT22;11557;50.884;4.322;2023-02-08T04:48:50;3.30;99.90
22781;DHT22;11557;50.884;4.322;2023-02-08T04:51:16;3.20;99.90
22781;DHT22;11557;50.884;4.322;2023-02-08T04:53:41;3.10;99.90
22781;DHT22;11557;50.884;4.322;2023-02-08T04:56:07;3.10;99.90
22781;DHT22;11557;50.884;4.322;2023-02-08T04:58:33;3.20;99.90
22781;DHT22;11557;50.884;4.322;2023-02-08T05:00:58;3.40;99.90
22781;DHT22;11557;50.884;4.322;2023-02-08T05:03:24;3.20;99.90
22781;DHT22;11557;50.884;4.322;2023-02-08T05:05:59;3.50;99.90
22781;DHT22;11557;50.884;4.322;2023-02-08T05:08:25;2.90;99.90
22781;DHT22;11557;50.884;4.322;2023-02-08T05:10:51;2.90;99.90
22781;DHT22;11557;50.884;4.322;2023-02-08T05:13:17;3.20;99.90
22781;DHT22;11557;50.884;4.322;2023-02-08T05:15:42;3.50;99.90
22781;DHT22;11557;50.884;4.322;2023-02-08T05:18:08;3.00;99.90
22781;DHT22;11557;50.884;4.322;2023-02-08T05:20:34;2.80;99.90
22781;DHT22;11557;50.884;4.322;2023-02-08T05:22:59;2.70;99.90
22781;DHT22;11557;50.884;4.322;2023-02-08T05:25:25;3.30;99.90
22781;DHT22;11557;50.884;4.322;2023-02-08T05:27:51;2.80;99.90
22781;DHT22;11557;50.884;4.322;2023-02-08T05:30:17;2.60;99.90
22781;DHT22;11557;50.884;4.322;2023-02-08T05:32:43;3.20;99.90
22781;DHT22;11557;50.884;4.322;2023-02-08T05:35:08;2.70;99.90
22781;DHT22;11557;50.884;4.322;2023-02-08T05:37:34;4.00;99.90
22781;DHT22;11557;50.884;4.322;2023-02-08T05:40:00;3.50;99.90
22781;DHT22;11557;50.884;4.322;2023-02-08T05:42:25;2.90;99.90
22781;DHT22;11557;50.884;4.322;2023-02-08T05:44:51;3.30;99.90
22781;DHT22;11557;50.884;4.322;2023-02-08T05:47:17;3.00;99.90
22781;DHT22;11557;50.884;4.322;2023-02-08T05:49:43;2.90;99.90
22781;DHT22;11557;50.884;4.322;2023-02-08T05:52:08;3.00;99.90
22781;DHT22;11557;50.884;4.322;2023-02-08T05:54:34;2.90;99.90
22781;DHT22;11557;50.884;4.322;2023-02-08T05:57:00;2.70;99.90
22781;DHT22;11557;50.884;4.322;2023-02-08T05:59:26;2.90;99.90
22781;DHT22;11557;50.884;4.322;2023-02-08T06:01:51;2.90;99.90
22781;DHT22;11557;50.884;4.322;2023-02-08T06:04:17;3.40;99.90
22781;DHT22;11557;50.884;4.322;2023-02-08T06:06:43;3.00;99.90
22781;DHT22;11557;50.884;4.322;2023-02-08T06:09:08;3.10;99.90
22781;DHT22;11557;50.884;4.322;2023-02-08T06:11:34;3.10;99.90
22781;DHT22;11557;50.884;4.322;2023-02-08T06:14:01;2.90;99.90
22781;DHT22;11557;50.884;4.322;2023-02-08T06:16:27;2.90;99.90
22781;DHT22;11557;50.884;4.322;2023-02-08T06:18:53;3.40;99.90
22781;DHT22;11557;50.884;4.322;2023-02-08T06:21:19;2.80;99.90
22781;DHT22;11557;50.884;4.322;2023-02-08T06:23:44;2.90;99.90
22781;DHT22;11557;50.884;4.322;2023-02-08T06:26:10;2.80;99.90
22781;DHT22;11557;50.884;4.322;2023-02-08T06:28:36;3.70;99.90
22781;DHT22;11557;50.884;4.322;2023-02-08T06:31:01;3.60;99.90
22781;DHT22;11557;50.884;4.322;2023-02-08T06:33:27;3.40;99.90
22781;DHT22;11557;50.884;4.322;2023-02-08T06:35:53;2.50;99.90
22781;DHT22;11557;50.884;4.322;2023-02-08T06:38:19;2.10;99.90
22781;DHT22;11557;50.884;4.322;2023-02-08T06:40:46;2.40;99.90
22781;DHT22;11557;50.884;4.322;2023-02-08T06:43:12;2.50;99.90
22781;DHT22;11557;50.884;4.322;2023-02-08T06:45:38;2.00;99.90
22781;DHT22;11557;50.884;4.322;2023-02-08T06:48:04;3.10;99.90
22781;DHT22;11557;50.884;4.322;2023-02-08T06:50:30;2.50;99.90
22781;DHT22;11557;50.884;4.322;2023-02-08T06:52:56;2.60;99.90
22781;DHT22;11557;50.884;4.322;2023-02-08T06:55:21;2.90;99.90
22781;DHT22;11557;50.884;4.322;2023-02-08T06:57:47;2.40;99.90
22781;DHT22;11557;50.884;4.322;2023-02-08T07:00:13;2.60;99.90
22781;DHT22;11557;50.884;4.322;2023-02-08T07:02:40;2.70;99.90
22781;DHT22;11557;50.884;4.322;2023-02-08T07:05:07;2.70;99.90
22781;DHT22;11557;50.884;4.322;2023-02-08T07:07:32;2.70;99.90
22781;DHT22;11557;50.884;4.322;2023-02-08T07:09:58;2.90;99.90
22781;DHT22;11557;50.884;4.322;2023-02-08T07:12:24;2.80;99.90
22781;DHT22;11557;50.884;4.322;2023-02-08T07:14:50;2.70;99.90
22781;DHT22;11557;50.884;4.322;2023-02-08T07:17:16;3.00;99.90
22781;DHT22;11557;50.884;4.322;2023-02-08T07:19:41;3.40;99.90
22781;DHT22;11557;50.884;4.322;2023-02-08T07:22:07;2.90;99.90
22781;DHT22;11557;50.884;4.322;2023-02-08T07:24:38;2.80;99.90
22781;DHT22;11557;50.884;4.322;2023-02-08T07:27:06;2.70;99.90
22781;DHT22;11557;50.884;4.322;2023-02-08T07:29:32;3.20;99.90
22781;DHT22;11557;50.884;4.322;2023-02-08T07:31:59;2.70;99.90
22781;DHT22;11557;50.884;4.322;2023-02-08T07:34:27;2.40;99.90
22781;DHT22;11557;50.884;4.322;2023-02-08T07:36:53;2.30;99.90
22781;DHT22;11557;50.884;4.322;2023-02-08T07:39:19;2.20;99.90
22781;DHT22;11557;50.884;4.322;2023-02-08T07:41:45;3.90;99.90
22781;DHT22;11557;50.884;4.322;2023-02-08T07:44:11;2.50;99.90
22781;DHT22;11557;50.884;4.322;2023-02-08T07:46:37;2.60;99.90
22781;DHT22;11557;50.884;4.322;2023-02-08T07:49:03;2.50;99.90
22781;DHT22;11557;50.884;4.322;2023-02-08T07:51:29;2.50;99.90
22781;DHT22;11557;50.884;4.322;2023-02-08T07:53:55;2.90;99.90
22781;DHT22;11557;50.884;4.322;2023-02-08T07:56:20;2.50;99.90
22781;DHT22;11557;50.884;4.322;2023-02-08T07:58:49;2.50;99.90
22781;DHT22;11557;50.884;4.322;2023-02-08T08:01:15;2.50;99.90
22781;DHT22;11557;50.884;4.322;2023-02-08T08:03:41;2.30;99.90
22781;DHT22;11557;50.884;4.322;2023-02-08T08:06:07;2.20;99.90
22781;DHT22;11557;50.884;4.322;2023-02-08T08:08:33;2.10;99.90
22781;DHT22;11557;50.884;4.322;2023-02-08T08:10:59;2.30;99.90
22781;DHT22;11557;50.884;4.322;2023-02-08T08:13:25;2.60;99.90
22781;DHT22;11557;50.884;4.322;2023-02-08T08:15:50;2.70;99.90
22781;DHT22;11557;50.884;4.322;2023-02-08T08:18:16;2.60;99.90
22781;DHT22;11557;50.884;4.322;2023-02-08T08:20:44;2.90;99.90
22781;DHT22;11557;50.884;4.322;2023-02-08T08:23:10;2.80;99.90
22781;DHT22;11557;50.884;4.322;2023-02-08T08:25:36;2.70;99.90
22781;DHT22;11557;50.884;4.322;2023-02-08T08:28:03;2.80;99.90
22781;DHT22;11557;50.884;4.322;2023-02-08T08:30:29;2.90;99.90
22781;DHT22;11557;50.884;4.322;2023-02-08T08:32:55;3.00;99.90
22781;DHT22;11557;50.884;4.322;2023-02-08T08:35:20;2.90;99.90
22781;DHT22;11557;50.884;4.322;2023-02-08T08:37:46;2.70;99.90
22781;DHT22;11557;50.884;4.322;2023-02-08T08:40:12;3.90;99.90
22781;DHT22;11557;50.884;4.322;2023-02-08T08:42:37;3.00;99.90
22781;DHT22;11557;50.884;4.322;2023-02-08T08:45:09;3.50;99.90
22781;DHT22;11557;50.884;4.322;2023-02-08T08:47:35;3.20;99.90
22781;DHT22;11557;50.884;4.322;2023-02-08T08:50:01;3.20;99.90
22781;DHT22;11557;50.884;4.322;2023-02-08T08:52:27;3.30;99.90
22781;DHT22;11557;50.884;4.322;2023-02-08T08:54:52;3.40;99.90
22781;DHT22;11557;50.884;4.322;2023-02-08T08:57:18;3.30;99.90
22781;DHT22;11557;50.884;4.322;2023-02-08T08:59:44;3.30;99.90
22781;DHT22;11557;50.884;4.322;2023-02-08T09:02:13;3.40;99.90
22781;DHT22;11557;50.884;4.322;2023-02-08T09:04:39;3.40;99.90
22781;DHT22;11557;50.884;4.322;2023-02-08T09:07:06;3.60;99.90
22781;DHT22;11557;50.884;4.322;2023-02-08T09:09:32;3.80;99.90
22781;DHT22;11557;50.884;4.322;2023-02-08T09:11:58;3.40;99.90
22781;DHT22;11557;50.884;4.322;2023-02-08T09:14:24;3.80;99.90
22781;DHT22;11557;50.884;4.322;2023-02-08T09:16:49;3.50;99.90
22781;DHT22;11557;50.884;4.322;2023-02-08T09:19:15;3.40;99.90
22781;DHT22;11557;50.884;4.322;2023-02-08T09:21:41;3.20;99.90
22781;DHT22;11557;50.884;4.322;2023-02-08T09:24:08;3.40;99.90
22781;DHT22;11557;50.884;4.322;2023-02-08T09:26:33;3.40;99.90
22781;DHT22;11557;50.884;4.322;2023-02-08T09:28:59;3.40;99.90
22781;DHT22;11557;50.884;4.322;2023-02-08T09:31:27;3.80;99.90
22781;DHT22;11557;50.884;4.322;2023-02-08T09:33:56;3.30;99.90
22781;DHT22;11557;50.884;4.322;2023-02-08T09:36:25;3.40;99.90
22781;DHT22;11557;50.884;4.322;2023-02-08T09:38:54;3.40;99.90
22781;DHT22;11557;50.884;4.322;2023-02-08T09:41:37;3.40;99.90
22781;DHT22;11557;50.884;4.322;2023-02-08T09:44:22;3.50;99.90
22781;DHT22;11557;50.884;4.322;2023-02-08T09:47:05;3.50;99.90
22781;DHT22;11557;50.884;4.322;2023-02-08T09:49:39;3.50;99.90
22781;DHT22;11557;50.884;4.322;2023-02-08T09:52:14;3.60;99.90
22781;DHT22;11557;50.884;4.322;2023-02-08T09:54:44;3.70;99.90
22781;DHT22;11557;50.884;4.322;2023-02-08T09:57:19;3.80;99.90
22781;DHT22;11557;50.884;4.322;2023-02-08T09:59:52;4.00;99.90
22781;DHT22;11557;50.884;4.322;2023-02-08T10:02:27;6.20;99.90
22781;DHT22;11557;50.884;4.322;2023-02-08T10:05:01;8.80;99.90
22781;DHT22;11557;50.884;4.322;2023-02-08T10:07:28;11.70;99.90
22781;DHT22;11557;50.884;4.322;2023-02-08T10:09:57;12.00;99.90
22781;DHT22;11557;50.884;4.322;2023-02-08T10:15:43;11.00;99.90
22781;DHT22;11557;50.884;4.322;2023-02-08T10:21:48;13.50;99.90
22781;DHT22;11557;50.884;4.322;2023-02-08T10:27:23;16.60;99.90
22781;DHT22;11557;50.884;4.322;2023-02-08T10:35:34;18.30;99.90
22781;DHT22;11557;50.884;4.322;2023-02-08T10:41:22;18.70;97.30
22781;DHT22;11557;50.884;4.322;2023-02-08T10:43:47;18.70;95.40
22781;DHT22;11557;50.884;4.322;2023-02-08T10:52:16;17.50;92.80
22781;DHT22;11557;50.884;4.322;2023-02-08T10:54:41;17.80;93.00
22781;DHT22;11557;50.884;4.322;2023-02-08T10:57:36;17.30;91.50
22781;DHT22;11557;50.884;4.322;2023-02-08T11:00:19;17.10;92.00
22781;DHT22;11557;50.884;4.322;2023-02-08T11:02:45;16.80;91.40
22781;DHT22;11557;50.884;4.322;2023-02-08T11:07:40;16.50;91.20
22781;DHT22;11557;50.884;4.322;2023-02-08T11:10:22;16.50;90.50
22781;DHT22;11557;50.884;4.322;2023-02-08T11:12:55;16.10;91.20
22781;DHT22;11557;50.884;4.322;2023-02-08T11:15:46;15.90;90.70
22781;DHT22;11557;50.884;4.322;2023-02-08T11:18:30;15.50;91.40
22781;DHT22;11557;50.884;4.322;2023-02-08T11:21:02;15.00;90.80
22781;DHT22;11557;50.884;4.322;2023-02-08T11:23:30;14.50;89.70
22781;DHT22;11557;50.884;4.322;2023-02-08T11:26:35;14.00;91.50
22781;DHT22;11557;50.884;4.322;2023-02-08T11:31:30;13.30;90.00
22781;DHT22;11557;50.884;4.322;2023-02-08T11:34:18;13.00;90.20
22781;DHT22;11557;50.884;4.322;2023-02-08T11:36:48;12.70;89.40
22781;DHT22;11557;50.884;4.322;2023-02-08T11:39:37;12.30;89.50
22781;DHT22;11557;50.884;4.322;2023-02-08T11:42:03;11.90;88.10
22781;DHT22;11557;50.884;4.322;2023-02-08T11:44:37;11.70;89.00
22781;DHT22;11557;50.884;4.322;2023-02-08T11:47:08;11.30;91.70
22781;DHT22;11557;50.884;4.322;2023-02-08T11:49:38;11.10;90.60
22781;DHT22;11557;50.884;4.322;2023-02-08T11:52:20;10.90;90.80
22781;DHT22;11557;50.884;4.322;2023-02-08T11:54:49;10.70;90.40
22781;DHT22;11557;50.884;4.322;2023-02-08T11:57:25;10.80;91.00
22781;DHT22;11557;50.884;4.322;2023-02-08T12:00:18;10.90;90.70
22781;DHT22;11557;50.884;4.322;2023-02-08T12:02:44;10.90;91.20
22781;DHT22;11557;50.884;4.322;2023-02-08T12:05:16;10.90;93.10
22781;DHT22;11557;50.884;4.322;2023-02-08T12:08:02;10.90;93.10
22781;DHT22;11557;50.884;4.322;2023-02-08T12:16:13;10.50;93.30
22781;DHT22;11557;50.884;4.322;2023-02-08T12:21:44;10.50;94.30
22781;DHT22;11557;50.884;4.322;2023-02-08T12:24:29;10.50;94.00
22781;DHT22;11557;50.884;4.322;2023-02-08T12:38:28;10.30;94.20
22781;DHT22;11557;50.884;4.322;2023-02-08T12:55:11;10.10;93.20
22781;DHT22;11557;50.884;4.322;2023-02-08T12:57:39;10.20;93.00
22781;DHT22;11557;50.884;4.322;2023-02-08T13:00:27;10.20;92.60
22781;DHT22;11557;50.884;4.322;2023-02-08T13:05:51;10.10;93.60
22781;DHT22;11557;50.884;4.322;2023-02-08T13:11:20;10.20;93.80
22781;DHT22;11557;50.884;4.322;2023-02-08T13:14:00;10.30;93.20
22781;DHT22;11557;50.884;4.322;2023-02-08T13:16:31;10.20;96.00
22781;DHT22;11557;50.884;4.322;2023-02-08T13:21:46;10.20;93.50
22781;DHT22;11557;50.884;4.322;2023-02-08T13:24:29;10.20;93.50
22781;DHT22;11557;50.884;4.322;2023-02-08T13:26:56;10.30;92.70
22781;DHT22;11557;50.884;4.322;2023-02-08T13:29:22;10.20;93.80
22781;DHT22;11557;50.884;4.322;2023-02-08T13:31:57;10.20;93.60
22781;DHT22;11557;50.884;4.322;2023-02-08T13:34:35;10.10;93.10
22781;DHT22;11557;50.884;4.322;2023-02-08T13:37:15;10.10;93.60
22781;DHT22;11557;50.884;4.322;2023-02-08T13:39:43;10.10;93.50
22781;DHT22;11557;50.884;4.322;2023-02-08T13:44:57;10.10;94.10
22781;DHT22;11557;50.884;4.322;2023-02-08T13:47:32;10.10;93.40
22781;DHT22;11557;50.884;4.322;2023-02-08T13:50:00;10.10;95.10
22781;DHT22;11557;50.884;4.322;2023-02-08T13:57:56;9.90;94.50
22781;DHT22;11557;50.884;4.322;2023-02-08T14:00:26;9.90;94.60
22781;DHT22;11557;50.884;4.322;2023-02-08T14:03:00;10.00;94.90
22781;DHT22;11557;50.884;4.322;2023-02-08T14:08:04;10.10;95.20
22781;DHT22;11557;50.884;4.322;2023-02-08T14:10:39;9.90;97.30
22781;DHT22;11557;50.884;4.322;2023-02-08T14:15:40;10.00;98.40
22781;DHT22;11557;50.884;4.322;2023-02-08T14:18:36;9.90;97.00
22781;DHT22;11557;50.884;4.322;2023-02-08T14:21:06;9.80;98.20
22781;DHT22;11557;50.884;4.322;2023-02-08T14:23:35;9.90;97.70
22781;DHT22;11557;50.884;4.322;2023-02-08T14:26:08;10.00;97.40
22781;DHT22;11557;50.884;4.322;2023-02-08T14:28:44;10.00;97.00
22781;DHT22;11557;50.884;4.322;2023-02-08T14:31:11;10.10;98.40
22781;DHT22;11557;50.884;4.322;2023-02-08T14:33:49;9.90;98.70
22781;DHT22;11557;50.884;4.322;2023-02-08T14:36:35;9.90;99.80
22781;DHT22;11557;50.884;4.322;2023-02-08T14:39:21;10.00;98.80
22781;DHT22;11557;50.884;4.322;2023-02-08T14:41:59;10.00;99.20
22781;DHT22;11557;50.884;4.322;2023-02-08T14:50:21;10.00;99.90
22781;DHT22;11557;50.884;4.322;2023-02-08T14:55:24;9.60;99.90
22781;DHT22;11557;50.884;4.322;2023-02-08T14:57:54;9.70;99.90
22781;DHT22;11557;50.884;4.322;2023-02-08T15:00:22;9.50;99.90
22781;DHT22;11557;50.884;4.322;2023-02-08T15:02:52;9.50;99.90
22781;DHT22;11557;50.884;4.322;2023-02-08T15:05:29;9.20;99.90
22781;DHT22;11557;50.884;4.322;2023-02-08T15:08:00;9.20;99.90
22781;DHT22;11557;50.884;4.322;2023-02-08T15:10:27;9.20;99.90
22781;DHT22;11557;50.884;4.322;2023-02-08T15:12:59;9.30;99.90
22781;DHT22;11557;50.884;4.322;2023-02-08T15:15:39;9.20;99.90
22781;DHT22;11557;50.884;4.322;2023-02-08T15:18:15;9.20;99.90
22781;DHT22;11557;50.884;4.322;2023-02-08T15:20:43;9.10;99.90
22781;DHT22;11557;50.884;4.322;2023-02-08T15:23:19;9.00;99.90
22781;DHT22;11557;50.884;4.322;2023-02-08T15:26:01;9.10;99.90
22781;DHT22;11557;50.884;4.322;2023-02-08T15:28:29;9.00;99.90
22781;DHT22;11557;50.884;4.322;2023-02-08T15:31:05;9.00;99.90
22781;DHT22;11557;50.884;4.322;2023-02-08T15:33:32;8.90;99.90
22781;DHT22;11557;50.884;4.322;2023-02-08T15:36:20;8.70;99.90
22781;DHT22;11557;50.884;4.322;2023-02-08T15:38:47;8.70;99.90
22781;DHT22;11557;50.884;4.322;2023-02-08T15:41:14;8.60;99.90
22781;DHT22;11557;50.884;4.322;2023-02-08T15:43:41;8.50;99.90
22781;DHT22;11557;50.884;4.322;2023-02-08T15:46:24;8.40;99.90
22781;DHT22;11557;50.884;4.322;2023-02-08T15:48:51;8.20;99.90
22781;DHT22;11557;50.884;4.322;2023-02-08T15:51:18;8.20;99.90
22781;DHT22;11557;50.884;4.322;2023-02-08T15:53:49;8.10;99.90
22781;DHT22;11557;50.884;4.322;2023-02-08T15:56:23;8.10;99.90
22781;DHT22;11557;50.884;4.322;2023-02-08T15:58:56;8.10;99.90
22781;DHT22;11557;50.884;4.322;2023-02-08T16:01:23;8.00;99.90
22781;DHT22;11557;50.884;4.322;2023-02-08T16:03:56;8.00;99.90
22781;DHT22;11557;50.884;4.322;2023-02-08T16:06:28;8.00;99.90
22781;DHT22;11557;50.884;4.322;2023-02-08T16:08:58;7.90;99.90
22781;DHT22;11557;50.884;4.322;2023-02-08T16:11:31;7.90;99.90
22781;DHT22;11557;50.884;4.322;2023-02-08T16:13:59;7.80;99.90
22781;DHT22;11557;50.884;4.322;2023-02-08T16:16:38;7.90;99.90
22781;DHT22;11557;50.884;4.322;2023-02-08T16:21:51;7.70;99.90
22781;DHT22;11557;50.884;4.322;2023-02-08T16:24:25;7.70;99.90
22781;DHT22;11557;50.884;4.322;2023-02-08T16:29:28;7.50;99.90
22781;DHT22;11557;50.884;4.322;2023-02-08T16:32:30;7.50;99.90
22781;DHT22;11557;50.884;4.322;2023-02-08T16:34:57;7.40;99.90
22781;DHT22;11557;50.884;4.322;2023-02-08T16:37:28;7.40;99.90
22781;DHT22;11557;50.884;4.322;2023-02-08T16:47:26;7.20;99.90
22781;DHT22;11557;50.884;4.322;2023-02-08T16:49:52;7.10;99.90
22781;DHT22;11557;50.884;4.322;2023-02-08T16:52:18;7.00;99.90
22781;DHT22;11557;50.884;4.322;2023-02-08T16:54:44;7.00;99.90
22781;DHT22;11557;50.884;4.322;2023-02-08T16:57:09;7.00;99.90
22781;DHT22;11557;50.884;4.322;2023-02-08T16:59:35;7.00;99.90
22781;DHT22;11557;50.884;4.322;2023-02-08T17:02:01;7.00;99.90
22781;DHT22;11557;50.884;4.322;2023-02-08T17:04:27;7.00;99.90
22781;DHT22;11557;50.884;4.322;2023-02-08T17:06:52;6.90;99.90
22781;DHT22;11557;50.884;4.322;2023-02-08T17:09:18;6.90;99.90
22781;DHT22;11557;50.884;4.322;2023-02-08T17:11:44;6.90;99.90
22781;DHT22;11557;50.884;4.322;2023-02-08T17:14:10;6.80;99.90
22781;DHT22;11557;50.884;4.322;2023-02-08T17:16:36;6.70;99.90
22781;DHT22;11557;50.884;4.322;2023-02-08T17:19:04;6.70;99.90
22781;DHT22;11557;50.884;4.322;2023-02-08T17:21:30;6.60;99.90
22781;DHT22;11557;50.884;4.322;2023-02-08T17:23:56;6.60;99.90
22781;DHT22;11557;50.884;4.322;2023-02-08T17:26:35;6.50;99.90
22781;DHT22;11557;50.884;4.322;2023-02-08T17:29:02;6.60;99.90
22781;DHT22;11557;50.884;4.322;2023-02-08T17:31:28;6.60;99.90
22781;DHT22;11557;50.884;4.322;2023-02-08T17:33:54;6.60;99.90
22781;DHT22;11557;50.884;4.322;2023-02-08T17:36:29;6.50;99.90
22781;DHT22;11557;50.884;4.322;2023-02-08T17:38:56;6.50;99.90
22781;DHT22;11557;50.884;4.322;2023-02-08T17:41:22;6.50;99.90
22781;DHT22;11557;50.884;4.322;2023-02-08T17:43:52;6.40;99.90
22781;DHT22;11557;50.884;4.322;2023-02-08T17:46:22;6.40;99.90
22781;DHT22;11557;50.884;4.322;2023-02-08T17:48:48;6.30;99.90
22781;DHT22;11557;50.884;4.322;2023-02-08T17:51:16;6.30;99.90
22781;DHT22;11557;50.884;4.322;2023-02-08T17:53:43;6.20;99.90
22781;DHT22;11557;50.884;4.322;2023-02-08T17:56:16;6.20;99.90
22781;DHT22;11557;50.884;4.322;2023-02-08T17:58:43;6.10;99.90
22781;DHT22;11557;50.884;4.322;2023-02-08T18:01:13;6.10;99.90
22781;DHT22;11557;50.884;4.322;2023-02-08T18:03:42;5.90;99.90
22781;DHT22;11557;50.884;4.322;2023-02-08T18:06:09;6.00;99.90
22781;DHT22;11557;50.884;4.322;2023-02-08T18:08:35;6.00;99.90
22781;DHT22;11557;50.884;4.322;2023-02-08T18:11:05;6.00;99.90
22781;DHT22;11557;50.884;4.322;2023-02-08T18:13:33;5.90;99.90
22781;DHT22;11557;50.884;4.322;2023-02-08T18:16:12;5.90;99.90
22781;DHT22;11557;50.884;4.322;2023-02-08T18:18:39;5.80;99.90
22781;DHT22;11557;50.884;4.322;2023-02-08T18:21:11;5.70;99.90
22781;DHT22;11557;50.884;4.322;2023-02-08T18:23:37;5.80;99.90
22781;DHT22;11557;50.884;4.322;2023-02-08T18:26:09;5.70;99.90